createdAt,value
2019-01-20T00:00:47.833Z,18.40
2019-01-20T00:03:17.758Z,15.43
2019-01-20T00:05:47.122Z,14.63
2019-01-20T00:08:16.500Z,16.45
2019-01-20T00:10:45.881Z,17.80
2019-01-20T00:13:15.247Z,14.20
2019-01-20T00:15:46.291Z,13.13
2019-01-20T00:18:15.666Z,15.90
2019-01-20T00:20:45.042Z,14.58
2019-01-20T00:23:14.438Z,14.10
2019-01-20T00:25:43.814Z,13.38
2019-01-20T00:28:13.184Z,13.10
2019-01-20T00:30:42.587Z,13.65
2019-01-20T00:33:11.947Z,16.13
2019-01-20T00:35:41.320Z,13.47
2019-01-20T00:38:10.712Z,12.75
2019-01-20T00:40:40.068Z,12.47
2019-01-20T00:43:09.444Z,13.10
2019-01-20T00:45:39.161Z,13.43
2019-01-20T00:48:08.538Z,14.23
2019-01-20T00:50:37.903Z,14.00
2019-01-20T00:53:07.363Z,13.48
2019-01-20T00:55:36.724Z,14.97
2019-01-20T00:58:06.159Z,12.82
2019-01-20T01:00:35.659Z,13.03
2019-01-20T01:03:05.168Z,14.05
2019-01-20T01:05:34.905Z,14.37
2019-01-20T01:08:04.743Z,13.93
2019-01-20T01:10:34.111Z,15.08
2019-01-20T01:13:04.638Z,18.23
2019-01-20T01:15:34.183Z,13.40
2019-01-20T01:18:03.637Z,12.98
2019-01-20T01:20:33.017Z,15.15
2019-01-20T01:23:02.400Z,13.32
2019-01-20T01:25:31.773Z,12.40
2019-01-20T01:28:01.135Z,13.30
2019-01-20T01:30:30.530Z,15.10
2019-01-20T01:32:59.956Z,13.17
2019-01-20T01:35:29.327Z,17.83
2019-01-20T01:37:59.842Z,13.45
2019-01-20T01:40:29.207Z,17.55
2019-01-20T01:42:58.582Z,14.17
2019-01-20T01:45:27.997Z,14.33
2019-01-20T01:47:57.354Z,14.30
2019-01-20T01:50:26.754Z,14.23
2019-01-20T01:52:56.416Z,14.25
2019-01-20T02:14:46.649Z,26.67
2019-01-20T02:17:16.984Z,40.93
2019-01-20T02:19:46.334Z,42.80
2019-01-20T02:22:15.719Z,42.43
2019-01-20T02:24:45.072Z,37.88
2019-01-20T02:27:14.495Z,32.28
2019-01-20T02:29:43.876Z,36.23
2019-01-20T02:32:13.229Z,30.30
2019-01-20T02:34:42.600Z,31.53
2019-01-20T02:37:12.377Z,41.23
2019-01-20T02:39:41.738Z,38.27
2019-01-20T02:42:11.108Z,26.33
2019-01-20T02:44:40.485Z,25.50
2019-01-20T02:47:09.837Z,23.43
2019-01-20T02:49:39.234Z,28.37
2019-01-20T02:52:08.577Z,25.70
2019-01-20T02:54:37.941Z,23.90
2019-01-20T02:57:07.314Z,18.87
2019-01-20T02:59:37.104Z,19.23
2019-01-20T03:02:06.631Z,17.40
2019-01-20T03:04:35.977Z,15.53
2019-01-20T03:07:05.558Z,15.90
2019-01-20T03:09:34.920Z,20.17
2019-01-20T03:12:04.450Z,17.40
2019-01-20T03:14:33.829Z,14.78
2019-01-20T03:17:04.702Z,24.43
2019-01-20T03:19:34.124Z,15.00
2019-01-20T03:22:03.990Z,17.43
2019-01-20T03:24:33.340Z,15.18
2019-01-20T03:27:02.773Z,13.95
2019-01-20T03:29:32.165Z,16.32
2019-01-20T03:32:01.534Z,15.20
2019-01-20T03:34:30.906Z,20.20
2019-01-20T03:37:00.288Z,18.50
2019-01-20T03:39:29.672Z,16.10
2019-01-20T03:41:59.061Z,15.28
2019-01-20T03:44:28.476Z,14.95
2019-01-20T03:46:57.859Z,16.60
2019-01-20T03:49:27.257Z,15.93
2019-01-20T03:51:56.631Z,16.67
2019-01-20T03:54:26.002Z,15.63
2019-01-20T03:56:55.361Z,18.57
2019-01-20T03:59:24.804Z,15.40
2019-01-20T04:01:54.186Z,17.20
2019-01-20T04:04:23.555Z,15.50
2019-01-20T04:06:53.314Z,16.13
2019-01-20T04:09:22.675Z,15.20
2019-01-20T04:11:52.049Z,16.00
2019-01-20T04:14:21.439Z,15.03
2019-01-20T04:16:50.814Z,15.43
2019-01-20T04:19:20.736Z,13.80
2019-01-20T04:21:50.122Z,14.53
2019-01-20T04:24:19.486Z,17.87
2019-01-20T04:26:48.845Z,14.65
2019-01-20T04:29:18.978Z,14.60
2019-01-20T04:31:48.335Z,13.88
2019-01-20T04:34:17.708Z,15.90
2019-01-20T04:36:47.095Z,13.08
2019-01-20T04:39:16.482Z,13.80
2019-01-20T04:41:45.864Z,17.33
2019-01-20T04:44:15.293Z,13.63
2019-01-20T04:46:44.657Z,13.00
2019-01-20T04:49:14.026Z,16.12
2019-01-20T04:51:43.752Z,15.33
2019-01-20T04:54:13.682Z,15.20
2019-01-20T04:56:43.066Z,17.90
2019-01-20T04:59:12.443Z,13.70
2019-01-20T05:01:41.820Z,13.87
2019-01-20T05:04:11.177Z,14.15
2019-01-20T05:06:40.573Z,13.47
2019-01-20T05:09:09.951Z,14.47
2019-01-20T05:11:39.324Z,14.38
2019-01-20T05:14:09.391Z,16.70
2019-01-20T05:16:38.752Z,14.37
2019-01-20T05:19:09.744Z,14.17
2019-01-20T05:21:40.241Z,12.85
2019-01-20T05:24:09.602Z,11.90
2019-01-20T05:26:38.961Z,11.70
2019-01-20T05:29:08.354Z,11.38
2019-01-20T05:31:37.745Z,12.03
2019-01-20T05:34:07.098Z,11.78
2019-01-20T05:36:37.204Z,11.45
2019-01-20T05:39:08.095Z,11.03
2019-01-20T05:41:37.477Z,12.27
2019-01-20T05:44:06.848Z,12.00
2019-01-20T05:46:36.225Z,11.97
2019-01-20T05:49:05.648Z,12.15
2019-01-20T05:51:35.030Z,10.90
2019-01-20T05:54:04.482Z,12.20
2019-01-20T05:56:33.865Z,13.57
2019-01-20T05:59:03.267Z,13.53
2019-01-20T06:01:32.635Z,13.23
2019-01-20T06:04:02.001Z,13.10
2019-01-20T06:06:33.980Z,13.30
2019-01-20T06:09:02.528Z,13.20
2019-01-20T06:11:31.892Z,14.30
2019-01-20T06:14:01.277Z,13.40
2019-01-20T06:16:30.652Z,11.70
2019-01-20T06:19:00.067Z,14.15
2019-01-20T06:21:29.898Z,12.57
2019-01-20T06:24:02.845Z,12.40
2019-01-20T06:26:32.216Z,12.88
2019-01-20T06:29:01.594Z,12.43
2019-01-20T06:31:30.964Z,11.57
2019-01-20T06:34:00.336Z,13.63
2019-01-20T06:36:29.727Z,12.47
2019-01-20T06:38:59.178Z,12.73
2019-01-20T06:41:28.574Z,13.03
2019-01-20T06:43:58.318Z,13.13
2019-01-20T06:46:27.708Z,13.03
2019-01-20T06:48:57.134Z,12.63
2019-01-20T06:51:26.527Z,13.13
2019-01-20T06:53:55.894Z,13.30
2019-01-20T06:56:25.274Z,13.27
2019-01-20T06:58:54.677Z,12.95
2019-01-20T07:01:24.056Z,12.83
2019-01-20T07:03:53.426Z,13.00
2019-01-20T07:06:23.301Z,12.57
2019-01-20T07:08:52.737Z,14.33
2019-01-20T07:11:22.104Z,13.88
2019-01-20T07:13:51.496Z,14.00
2019-01-20T07:16:20.929Z,13.93
2019-01-20T07:18:50.280Z,13.83
2019-01-20T07:21:19.657Z,13.83
2019-01-20T07:23:49.013Z,16.10
2019-01-20T07:26:19.561Z,16.70
2019-01-20T07:28:49.269Z,12.93
2019-01-20T07:31:18.609Z,13.70
2019-01-20T07:33:47.968Z,13.80
2019-01-20T07:36:17.350Z,22.40
2019-01-20T07:38:46.710Z,15.73
2019-01-20T07:41:16.076Z,20.37
2019-01-20T07:43:45.454Z,14.30
2019-01-20T07:46:14.812Z,14.13
2019-01-20T07:48:44.172Z,13.95
2019-01-20T07:51:13.575Z,14.50
2019-01-20T07:53:42.927Z,13.72
2019-01-20T07:56:12.291Z,14.20
2019-01-20T07:58:41.663Z,12.93
2019-01-20T08:01:11.044Z,12.80
2019-01-20T08:03:40.418Z,19.05
2019-01-20T08:06:09.798Z,13.50
2019-01-20T08:08:39.181Z,12.40
2019-01-20T08:11:08.551Z,16.60
2019-01-20T08:13:37.930Z,14.47
2019-01-20T08:16:07.380Z,13.90
2019-01-20T08:18:36.753Z,14.68
2019-01-20T08:21:06.147Z,14.00
2019-01-20T08:23:35.478Z,14.00
2019-01-20T08:26:04.982Z,13.98
2019-01-20T08:28:34.969Z,14.00
2019-01-20T08:31:04.496Z,14.70
2019-01-20T08:33:33.880Z,15.13
2019-01-20T08:36:03.775Z,20.30
2019-01-20T08:38:34.994Z,23.73
2019-01-20T08:41:04.523Z,24.55
2019-01-20T08:43:33.924Z,16.87
2019-01-20T08:46:16.649Z,14.77
2019-01-20T08:48:46.037Z,14.15
2019-01-20T08:51:15.542Z,16.33
2019-01-20T08:53:44.899Z,15.00
2019-01-20T08:56:14.914Z,15.13
2019-01-20T08:58:44.282Z,16.32
2019-01-20T09:01:13.663Z,16.73
2019-01-20T09:03:43.046Z,15.38
2019-01-20T09:06:12.494Z,15.63
2019-01-20T09:08:42.008Z,15.40
2019-01-20T09:11:11.544Z,16.10
2019-01-20T09:13:41.285Z,13.93
2019-01-20T09:16:10.803Z,13.83
2019-01-20T09:18:40.199Z,13.60
2019-01-20T09:21:09.572Z,13.47
2019-01-20T09:23:38.996Z,12.53
2019-01-20T09:26:09.318Z,13.43
2019-01-20T09:28:38.685Z,12.98
2019-01-20T09:31:08.065Z,12.30
2019-01-20T09:33:37.553Z,12.90
2019-01-20T09:36:06.981Z,12.87
2019-01-20T09:38:36.383Z,12.47
2019-01-20T09:41:05.953Z,15.98
2019-01-20T09:43:35.339Z,25.72
2019-01-20T09:46:04.826Z,52.33
2019-01-20T09:48:34.167Z,71.02
2019-01-20T09:51:03.562Z,50.80
2019-01-20T09:53:32.913Z,33.90
2019-01-20T09:56:02.322Z,34.03
2019-01-20T09:58:31.668Z,26.00
2019-01-20T10:01:01.066Z,21.90
2019-01-20T10:03:30.557Z,16.10
2019-01-20T10:05:59.949Z,15.03
2019-01-20T10:08:29.325Z,13.90
2019-01-20T10:10:58.685Z,13.97
2019-01-20T10:13:28.118Z,12.47
2019-01-20T10:15:57.566Z,11.80
2019-01-20T10:18:26.954Z,10.48
2019-01-20T10:20:56.324Z,11.40
2019-01-20T10:23:25.705Z,11.10
2019-01-20T10:25:55.401Z,12.15
2019-01-20T10:28:24.840Z,10.72
2019-01-20T10:30:54.612Z,10.17
2019-01-20T10:33:23.991Z,10.33
2019-01-20T10:35:55.051Z,10.03
2019-01-20T10:38:24.395Z,10.23
2019-01-20T10:40:53.759Z,10.43
2019-01-20T10:43:23.123Z,10.10
2019-01-20T10:45:52.518Z,10.77
2019-01-20T10:48:22.244Z,10.87
2019-01-20T10:50:51.635Z,10.30
2019-01-20T10:53:20.990Z,10.30
2019-01-20T10:55:50.373Z,11.00
2019-01-20T10:58:19.745Z,10.57
2019-01-20T11:00:49.111Z,11.50
2019-01-20T11:03:18.534Z,11.33
2019-01-20T11:05:47.887Z,11.50
2019-01-20T11:08:17.463Z,13.55
2019-01-20T11:10:47.192Z,11.73
2019-01-20T11:13:16.556Z,11.43
2019-01-20T11:15:45.920Z,11.30
2019-01-20T11:18:15.298Z,13.17
2019-01-20T11:20:44.662Z,12.50
2019-01-20T11:23:14.192Z,13.43
2019-01-20T11:25:43.587Z,12.77
2019-01-20T11:28:12.964Z,12.00
2019-01-20T11:30:42.389Z,14.30
2019-01-20T11:33:12.221Z,18.80
2019-01-20T11:35:41.601Z,28.23
2019-01-20T11:38:10.962Z,33.87
2019-01-20T11:40:40.344Z,19.70
2019-01-20T11:43:09.730Z,18.03
2019-01-20T11:45:39.165Z,23.23
2019-01-20T11:48:08.679Z,20.33
2019-01-20T11:50:38.050Z,16.97
2019-01-20T11:53:07.547Z,14.80
2019-01-20T11:55:36.961Z,13.57
2019-01-20T11:58:06.401Z,13.40
2019-01-20T12:00:36.771Z,14.93
2019-01-20T12:03:06.481Z,15.70
2019-01-20T12:05:36.511Z,14.63
2019-01-20T12:08:06.484Z,15.13
2019-01-20T12:10:36.158Z,16.97
2019-01-20T12:13:07.221Z,14.10
2019-01-20T12:15:36.902Z,15.33
2019-01-20T12:18:06.762Z,11.80
2019-01-20T12:20:36.204Z,13.27
2019-01-20T12:23:06.093Z,13.20
2019-01-20T12:25:35.525Z,13.00
2019-01-20T12:28:05.132Z,15.27
2019-01-20T12:30:38.363Z,14.97
2019-01-20T12:33:08.360Z,13.17
2019-01-20T12:35:38.897Z,14.33
2019-01-20T12:38:08.261Z,15.90
2019-01-20T12:40:44.399Z,14.30
2019-01-20T12:43:13.925Z,13.10
2019-01-20T12:45:43.344Z,18.00
2019-01-20T12:48:13.138Z,14.47
2019-01-20T12:50:42.486Z,16.63
2019-01-20T12:53:11.930Z,15.40
2019-01-20T12:55:41.302Z,15.40
2019-01-20T12:58:11.276Z,17.70
2019-01-20T13:00:40.635Z,13.93
2019-01-20T13:03:10.054Z,15.70
2019-01-20T13:05:39.475Z,12.80
2019-01-20T13:08:08.793Z,14.70
2019-01-20T13:10:38.884Z,12.47
2019-01-20T13:13:08.251Z,12.03
2019-01-20T13:15:37.617Z,12.83
2019-01-20T13:18:07.054Z,12.77
2019-01-20T13:20:36.442Z,11.17
2019-01-20T13:23:06.259Z,13.17
2019-01-20T13:25:35.627Z,17.17
2019-01-20T13:28:05.075Z,17.67
2019-01-20T13:30:34.429Z,15.57
2019-01-20T13:33:03.913Z,19.90
2019-01-20T13:35:33.265Z,23.77
2019-01-20T13:38:07.388Z,18.93
2019-01-20T13:40:47.354Z,15.40
2019-01-20T13:43:16.825Z,11.97
2019-01-20T13:45:46.274Z,13.15
2019-01-20T13:48:15.671Z,12.73
2019-01-20T13:50:45.116Z,12.10
2019-01-20T13:53:14.486Z,10.43
2019-01-20T13:55:43.933Z,10.20
2019-01-20T13:58:13.319Z,11.37
2019-01-20T14:00:42.714Z,11.00
2019-01-20T14:03:12.342Z,11.50
2019-01-20T14:05:41.691Z,10.50
2019-01-20T14:08:11.041Z,11.37
2019-01-20T14:10:40.450Z,10.40
2019-01-20T14:13:09.813Z,10.70
2019-01-20T14:15:39.183Z,9.47
2019-01-20T14:18:08.552Z,9.37
2019-01-20T14:20:37.891Z,9.33
2019-01-20T14:23:07.594Z,10.17
2019-01-20T14:25:36.964Z,10.07
2019-01-20T14:28:06.318Z,9.83
2019-01-20T14:30:35.659Z,9.60
2019-01-20T14:33:05.062Z,12.60
2019-01-20T14:35:34.405Z,9.23
2019-01-20T14:38:03.825Z,8.73
2019-01-20T14:40:33.560Z,8.53
2019-01-20T14:43:03.177Z,8.57
2019-01-20T14:45:32.526Z,9.10
2019-01-20T14:48:01.905Z,8.57
2019-01-20T14:50:31.317Z,8.90
2019-01-20T14:53:00.671Z,9.23
2019-01-20T14:55:30.436Z,8.63
2019-01-20T14:57:59.773Z,13.40
2019-01-20T15:00:33.394Z,8.63
2019-01-20T15:03:02.914Z,12.57
2019-01-20T15:05:32.327Z,8.60
2019-01-20T15:08:01.883Z,9.60
2019-01-20T15:10:32.088Z,9.00
2019-01-20T15:13:01.625Z,10.20
2019-01-20T15:15:35.349Z,8.80
2019-01-20T15:18:06.135Z,9.87
2019-01-20T15:20:35.633Z,8.80
2019-01-20T15:23:05.353Z,9.70
2019-01-20T15:25:35.403Z,12.10
2019-01-20T15:28:05.286Z,9.83
2019-01-20T15:30:35.269Z,9.50
2019-01-20T15:33:06.774Z,9.47
2019-01-20T15:35:36.377Z,11.20
2019-01-20T15:38:06.594Z,15.03
2019-01-20T15:40:36.333Z,14.17
2019-01-20T15:43:06.575Z,11.77
2019-01-20T15:45:35.947Z,9.47
2019-01-20T15:48:05.730Z,11.90
2019-01-20T15:50:35.151Z,10.60
2019-01-20T15:53:04.868Z,12.03
2019-01-20T15:55:34.315Z,10.53
2019-01-20T15:58:03.750Z,16.37
2019-01-20T16:00:33.577Z,16.42
2019-01-20T16:03:03.424Z,13.27
2019-01-20T16:05:32.844Z,10.00
2019-01-20T16:08:02.179Z,11.53
2019-01-20T16:10:31.563Z,8.87
2019-01-20T16:13:00.909Z,12.83
2019-01-20T16:15:33.806Z,9.43
2019-01-20T16:18:03.267Z,10.37
2019-01-20T16:20:33.158Z,26.40
2019-01-20T16:23:02.503Z,8.63
2019-01-20T16:25:34.987Z,13.73
2019-01-20T16:28:04.788Z,13.57
2019-01-20T16:30:37.043Z,9.57
2019-01-20T16:33:06.888Z,9.73
2019-01-20T16:35:36.335Z,9.23
2019-01-20T16:38:06.025Z,10.50
2019-01-20T16:40:35.395Z,8.97
2019-01-20T16:43:05.331Z,8.37
2019-01-20T16:45:41.966Z,7.97
2019-01-20T16:48:10.837Z,12.40
2019-01-20T16:50:40.341Z,7.60
2019-01-20T16:53:09.771Z,7.33
2019-01-20T16:55:39.130Z,8.40
2019-01-20T16:58:08.494Z,9.73
2019-01-20T17:00:40.756Z,9.60
2019-01-20T17:03:10.262Z,8.10
2019-01-20T17:05:39.686Z,12.07
2019-01-20T17:08:09.237Z,7.80
2019-01-20T17:10:40.917Z,8.63
2019-01-20T17:13:10.812Z,7.93
2019-01-20T17:15:42.237Z,7.00
2019-01-20T17:18:12.930Z,7.83
2019-01-20T17:20:42.477Z,7.87
2019-01-20T17:23:11.952Z,7.57
2019-01-20T17:25:41.262Z,6.90
2019-01-20T17:28:10.627Z,7.80
2019-01-20T17:30:40.595Z,7.90
2019-01-20T17:33:11.594Z,7.92
2019-01-20T17:35:40.969Z,7.27
2019-01-20T17:38:10.636Z,6.80
2019-01-20T17:40:40.035Z,7.07
2019-01-20T17:43:09.429Z,7.27
2019-01-20T17:45:47.599Z,9.43
2019-01-20T17:48:13.433Z,9.07
2019-01-20T17:50:43.336Z,9.27
2019-01-20T17:53:12.925Z,8.73
2019-01-20T17:55:42.312Z,8.20
2019-01-20T17:58:11.730Z,8.07
2019-01-20T18:00:42.796Z,7.70
2019-01-20T18:03:12.318Z,7.37
2019-01-20T18:05:41.990Z,7.47
2019-01-20T18:08:11.436Z,7.77
2019-01-20T18:10:40.844Z,7.77
2019-01-20T18:13:10.438Z,7.83
2019-01-20T18:15:39.861Z,7.87
2019-01-20T18:18:09.424Z,8.30
2019-01-20T18:20:38.792Z,7.07
2019-01-20T18:23:08.134Z,7.97
2019-01-20T18:25:37.642Z,7.93
2019-01-20T18:28:07.139Z,7.97
2019-01-20T18:30:36.599Z,8.07
2019-01-20T18:33:05.959Z,7.97
2019-01-20T18:35:35.400Z,8.10
2019-01-20T18:38:04.989Z,8.40
2019-01-20T18:40:34.376Z,8.20
2019-01-20T18:43:03.867Z,9.00
2019-01-20T18:45:34.734Z,7.90
2019-01-20T18:48:04.220Z,8.53
2019-01-20T18:50:38.657Z,10.33
2019-01-20T18:53:08.102Z,9.77
2019-01-20T18:55:37.663Z,10.20
2019-01-20T18:58:07.379Z,10.23
2019-01-20T19:00:41.339Z,9.07
2019-01-20T19:03:10.779Z,9.83
2019-01-20T19:05:40.281Z,8.90
2019-01-20T19:08:09.644Z,8.90
2019-01-20T19:10:39.781Z,10.63
2019-01-20T19:13:09.173Z,9.10
2019-01-20T19:15:38.534Z,8.80
2019-01-20T19:18:07.917Z,8.80
2019-01-20T19:20:37.317Z,7.97
2019-01-20T19:23:06.857Z,8.07
2019-01-20T19:25:36.337Z,9.05
2019-01-20T19:28:06.165Z,9.03
2019-01-20T19:30:36.470Z,10.00
2019-01-20T19:33:06.494Z,9.23
2019-01-20T19:35:35.865Z,10.48
2019-01-20T19:38:05.521Z,9.83
2019-01-20T19:40:34.942Z,9.08
2019-01-20T19:43:04.386Z,10.10
2019-01-20T19:45:33.821Z,9.60
2019-01-20T19:48:03.275Z,9.78
2019-01-20T19:50:32.711Z,10.20
2019-01-20T19:53:02.436Z,9.33
2019-01-20T19:55:33.471Z,9.40
2019-01-20T19:58:02.976Z,9.93
2019-01-20T20:00:33.298Z,9.43
2019-01-20T20:03:02.688Z,8.70
2019-01-20T20:05:32.258Z,8.90
2019-01-20T20:08:01.700Z,9.07
2019-01-20T20:10:31.146Z,10.07
2019-01-20T20:13:00.604Z,11.78
2019-01-20T20:15:30.124Z,11.07
2019-01-20T20:17:59.555Z,11.15
2019-01-20T20:20:28.981Z,10.43
2019-01-20T20:22:58.454Z,9.75
2019-01-20T20:25:28.017Z,10.63
2019-01-20T20:27:57.526Z,11.18
2019-01-20T20:30:30.438Z,10.50
2019-01-20T20:33:00.202Z,11.23
2019-01-20T20:35:29.567Z,11.33
2019-01-20T20:37:58.978Z,11.70
2019-01-20T20:40:28.364Z,11.20
2019-01-20T20:42:58.189Z,11.77
2019-01-20T20:45:28.201Z,10.57
2019-01-20T20:47:57.640Z,9.90
2019-01-20T20:50:27.026Z,11.00
2019-01-20T20:52:56.392Z,11.30
2019-01-20T20:55:26.777Z,10.83
2019-01-20T20:57:56.117Z,11.73
2019-01-20T21:00:35.847Z,13.17
2019-01-20T21:03:09.630Z,13.88
2019-01-20T21:05:39.076Z,12.97
2019-01-20T21:08:08.534Z,11.05
2019-01-20T21:10:37.895Z,11.47
2019-01-20T21:13:07.448Z,11.93
2019-01-20T21:15:36.814Z,10.77
2019-01-20T21:18:06.185Z,10.75
2019-01-20T21:20:35.560Z,12.07
2019-01-20T21:23:11.806Z,11.40
2019-01-20T21:25:36.047Z,11.95
2019-01-20T21:28:05.564Z,11.38
2019-01-20T21:30:34.930Z,10.25
2019-01-20T21:33:04.372Z,11.50
2019-01-20T21:35:33.746Z,10.87
2019-01-20T21:38:06.844Z,11.75
2019-01-20T21:40:34.400Z,10.35
2019-01-20T21:43:03.757Z,10.58
2019-01-20T21:45:33.220Z,11.18
2019-01-20T21:48:02.600Z,11.80
2019-01-20T21:50:32.471Z,11.40
2019-01-20T21:53:01.857Z,10.45
2019-01-20T21:55:31.221Z,13.40
2019-01-20T21:58:01.993Z,12.13
2019-01-20T22:00:31.657Z,11.95
2019-01-20T22:03:01.035Z,13.15
2019-01-20T22:05:30.397Z,12.27
2019-01-20T22:07:59.796Z,13.28
2019-01-20T22:10:29.222Z,13.22
2019-01-20T22:12:58.579Z,12.90
2019-01-20T22:15:27.969Z,14.07
2019-01-20T22:17:57.300Z,12.33
2019-01-20T22:20:26.676Z,12.73
2019-01-20T22:22:56.138Z,12.73
2019-01-20T22:25:25.494Z,13.13
2019-01-20T22:27:54.864Z,14.47
2019-01-20T22:30:26.161Z,14.77
2019-01-20T22:32:55.599Z,13.03
2019-01-20T22:35:24.981Z,13.97
2019-01-20T22:37:54.376Z,13.53
2019-01-20T22:40:23.740Z,11.50
2019-01-20T22:42:53.188Z,11.83
2019-01-20T22:45:25.561Z,12.43
2019-01-20T22:47:54.924Z,12.40
2019-01-20T22:50:24.586Z,13.66
2019-01-20T22:52:53.960Z,13.28
2019-01-20T22:55:23.343Z,13.55
2019-01-20T22:57:52.706Z,13.78
2019-01-20T23:00:46.377Z,14.63
2019-01-20T23:03:15.886Z,14.25
2019-01-20T23:05:45.381Z,16.48
2019-01-20T23:08:14.797Z,12.58
2019-01-20T23:10:44.125Z,12.15
2019-01-20T23:13:13.568Z,13.15
2019-01-20T23:15:42.913Z,12.47
2019-01-20T23:18:12.358Z,13.78
2019-01-20T23:20:41.720Z,12.87
2019-01-20T23:23:11.449Z,13.90
2019-01-20T23:25:40.814Z,14.28
2019-01-20T23:28:10.249Z,14.00
2019-01-20T23:30:39.723Z,14.33
2019-01-20T23:33:09.081Z,13.13
2019-01-20T23:35:38.466Z,13.13
2019-01-20T23:38:07.837Z,15.03
2019-01-20T23:40:37.193Z,15.13
2019-01-20T23:43:06.584Z,20.03
2019-01-20T23:45:36.534Z,24.30
2019-01-20T23:48:06.027Z,26.45
2019-01-20T23:50:35.386Z,32.67
2019-01-20T23:53:05.031Z,27.55
2019-01-20T23:55:35.445Z,26.07
2019-01-20T23:58:05.664Z,64.55
